Time,TemperatureF,DewpointF,PressureIn,WindDirection,WindDirectionDegrees,WindSpeedMPH,WindSpeedGustMPH,Humidity,HourlyPrecipIn,Conditions,Clouds,dailyrainin,SoftwareType,DateUTC
2014-09-19 00:00:00,63.0,51.4,30.03,North,0,0.9,0.9,66,0.00,,,0.00,WUHU216HW,2014-09-19 07:00:00,
2014-09-19 00:05:00,63.0,51.4,30.03,North,0,0.9,0.9,66,0.00,,,0.00,WUHU216HW,2014-09-19 07:05:00,
2014-09-19 00:30:00,62.6,51.5,30.03,North,0,0.0,0.0,67,0.00,,,0.00,WUHU216HW,2014-09-19 07:30:00,
2014-09-19 00:35:00,62.6,51.5,30.03,North,0,0.0,0.0,67,0.00,,,0.00,WUHU216HW,2014-09-19 07:35:00,
2014-09-19 00:59:00,62.3,51.2,30.03,North,0,0.0,0.0,67,0.00,,,0.00,WUHU216HW,2014-09-19 07:59:00,
2014-09-19 01:04:00,62.3,51.2,30.03,North,0,0.0,0.0,67,0.00,,,0.00,WUHU216HW,2014-09-19 08:04:00,
2014-09-19 01:30:00,62.1,51.4,30.03,North,0,0.7,0.7,68,0.00,,,0.00,WUHU216HW,2014-09-19 08:30:00,
2014-09-19 01:35:00,62.1,51.4,30.03,North,0,0.7,0.7,68,0.00,,,0.00,WUHU216HW,2014-09-19 08:35:00,
2014-09-19 01:59:00,61.7,51.5,30.03,NNW,338,0.4,0.4,69,0.00,,,0.00,WUHU216HW,2014-09-19 08:59:00,
2014-09-19 02:04:00,61.7,51.5,30.03,NNW,338,0.4,0.4,69,0.00,,,0.00,WUHU216HW,2014-09-19 09:04:00,
2014-09-19 02:30:00,61.4,51.2,30.03,NNE,23,0.7,0.7,69,0.00,,,0.00,WUHU216HW,2014-09-19 09:30:00,
2014-09-19 02:35:00,61.4,51.2,30.03,NNE,23,0.7,0.7,69,0.00,,,0.00,WUHU216HW,2014-09-19 09:35:00,
2014-09-19 02:59:00,61.4,51.2,30.03,NNE,23,0.7,0.7,69,0.00,,,0.00,WUHU216HW,2014-09-19 09:59:00,
2014-09-19 03:04:00,61.4,51.2,30.03,NNE,23,0.7,0.7,69,0.00,,,0.00,WUHU216HW,2014-09-19 10:04:00,
2014-09-19 03:30:00,61.0,50.5,30.03,NNE,23,0.0,0.0,68,0.00,,,0.00,WUHU216HW,2014-09-19 10:30:00,
2014-09-19 03:35:00,61.0,50.5,30.03,NNE,23,0.0,0.0,68,0.00,,,0.00,WUHU216HW,2014-09-19 10:35:00,
2014-09-19 03:59:00,60.8,50.7,30.02,NNE,23,0.0,0.0,69,0.00,,,0.00,WUHU216HW,2014-09-19 10:59:00,
2014-09-19 04:04:00,60.8,50.7,30.02,NNE,23,0.0,0.0,69,0.00,,,0.00,WUHU216HW,2014-09-19 11:04:00,
2014-09-19 04:09:00,60.8,50.7,30.02,NNE,23,0.0,0.0,69,0.00,,,0.00,WUHU216HW,2014-09-19 11:09:00,
2014-09-19 04:30:00,60.5,50.3,30.02,North,0,1.1,1.1,69,0.00,,,0.00,WUHU216HW,2014-09-19 11:30:00,
2014-09-19 04:35:00,60.5,50.3,30.02,North,0,1.1,1.1,69,0.00,,,0.00,WUHU216HW,2014-09-19 11:35:00,
2014-09-19 04:59:00,60.3,50.1,30.01,North,0,0.9,0.9,69,0.00,,,0.00,WUHU216HW,2014-09-19 11:59:00,
2014-09-19 05:04:00,60.3,50.1,30.01,North,0,0.9,0.9,69,0.00,,,0.00,WUHU216HW,2014-09-19 12:04:00,
2014-09-19 05:30:00,60.1,50.0,30.01,NNW,338,0.9,0.9,69,0.00,,,0.00,WUHU216HW,2014-09-19 12:30:00,
2014-09-19 05:35:00,60.1,50.0,30.01,NNW,338,0.9,0.9,69,0.00,,,0.00,WUHU216HW,2014-09-19 12:35:00,
2014-09-19 05:59:00,59.8,49.6,30.01,NNW,338,1.1,1.1,69,0.00,,,0.00,WUHU216HW,2014-09-19 12:59:00,
2014-09-19 06:04:00,59.8,49.6,30.01,NNW,338,1.1,1.1,69,0.00,,,0.00,WUHU216HW,2014-09-19 13:04:00,
2014-09-19 06:30:00,60.3,49.8,30.01,NNW,338,1.1,1.1,68,0.00,,,0.00,WUHU216HW,2014-09-19 13:30:00,
2014-09-19 06:35:00,60.3,49.8,30.01,NNW,338,1.1,1.1,68,0.00,,,0.00,WUHU216HW,2014-09-19 13:35:00,
2014-09-19 06:59:00,60.3,49.0,30.02,NNW,338,1.1,1.1,66,0.00,,,0.00,WUHU216HW,2014-09-19 13:59:00,
2014-09-19 07:04:00,60.3,49.3,30.02,NNW,338,1.1,1.1,67,0.00,,,0.00,WUHU216HW,2014-09-19 14:04:00,
2014-09-19 07:09:00,60.3,49.3,30.02,NNW,338,1.1,1.1,67,0.00,,,0.00,WUHU216HW,2014-09-19 14:09:00,
2014-09-19 07:30:00,60.1,49.1,30.03,North,0,0.0,0.0,67,0.00,,,0.00,WUHU216HW,2014-09-19 14:30:00,
2014-09-19 07:35:00,60.1,49.1,30.03,North,0,0.0,0.0,67,0.00,,,0.00,WUHU216HW,2014-09-19 14:35:00,
2014-09-19 07:59:00,61.6,50.1,30.03,North,0,0.0,0.0,66,0.00,,,0.00,WUHU216HW,2014-09-19 14:59:00,
2014-09-19 08:04:00,61.6,50.1,30.03,North,0,0.0,0.0,66,0.00,,,0.00,WUHU216HW,2014-09-19 15:04:00,
2014-09-19 08:30:00,63.7,50.4,30.03,North,0,0.2,0.2,62,0.00,,,0.00,WUHU216HW,2014-09-19 15:30:00,
2014-09-19 08:35:00,63.7,50.4,30.03,North,0,0.2,0.2,62,0.00,,,0.00,WUHU216HW,2014-09-19 15:35:00,
2014-09-19 08:59:00,67.1,51.4,30.03,NNE,23,0.0,0.0,57,0.00,,,0.00,WUHU216HW,2014-09-19 15:59:00,
2014-09-19 09:04:00,67.1,51.4,30.03,NNE,23,0.0,0.0,57,0.00,,,0.00,WUHU216HW,2014-09-19 16:04:00,
2014-09-19 09:30:00,70.2,53.3,30.03,ENE,68,1.1,1.1,55,0.00,,,0.00,WUHU216HW,2014-09-19 16:30:00,
2014-09-19 09:35:00,70.2,53.3,30.03,ENE,68,1.1,1.1,55,0.00,,,0.00,WUHU216HW,2014-09-19 16:35:00,
2014-09-19 09:59:00,72.9,54.2,30.03,South,180,2.0,2.0,52,0.00,,,0.00,WUHU216HW,2014-09-19 16:59:00,
2014-09-19 10:04:00,72.9,54.2,30.03,South,180,2.0,2.0,52,0.00,,,0.00,WUHU216HW,2014-09-19 17:04:00,
2014-09-19 10:30:00,75.6,54.5,30.03,SSW,203,2.0,2.0,48,0.00,,,0.00,WUHU216HW,2014-09-19 17:30:00,
2014-09-19 10:35:00,75.6,54.5,30.03,SSW,203,2.0,2.0,48,0.00,,,0.00,WUHU216HW,2014-09-19 17:35:00,
2014-09-19 10:59:00,76.3,55.2,30.03,SSE,158,1.3,1.3,48,0.00,,,0.00,WUHU216HW,2014-09-19 17:59:00,
2014-09-19 11:04:00,76.3,55.2,30.03,SSE,158,1.3,1.3,48,0.00,,,0.00,WUHU216HW,2014-09-19 18:04:00,
2014-09-19 11:30:00,76.5,54.7,30.03,South,180,1.1,1.1,47,0.00,,,0.00,WUHU216HW,2014-09-19 18:30:00,
2014-09-19 11:35:00,76.5,54.7,30.03,South,180,1.1,1.1,47,0.00,,,0.00,WUHU216HW,2014-09-19 18:35:00,
2014-09-19 11:59:00,76.5,54.7,30.02,South,180,1.8,1.8,47,0.00,,,0.00,WUHU216HW,2014-09-19 18:59:00,
2014-09-19 12:04:00,76.5,54.7,30.02,South,180,1.8,1.8,47,0.00,,,0.00,WUHU216HW,2014-09-19 19:04:00,